createdAt,value
2023-01-17T00:01:47.291Z,11.53
2023-01-17T00:04:32.729Z,8.63
2023-01-17T00:07:18.233Z,9.90
2023-01-17T00:09:54.085Z,9.33
2023-01-17T00:12:22.154Z,10.47
2023-01-17T00:14:49.336Z,10.67
2023-01-17T00:17:16.298Z,10.73
2023-01-17T00:20:02.113Z,10.30
2023-01-17T00:22:49.208Z,10.30
2023-01-17T00:25:47.465Z,10.23
2023-01-17T00:28:14.420Z,9.07
2023-01-17T00:30:41.189Z,9.77
2023-01-17T00:33:08.277Z,9.13
2023-01-17T00:35:35.177Z,9.00
2023-01-17T00:38:12.191Z,9.30
2023-01-17T00:40:41.525Z,9.30
2023-01-17T00:43:27.898Z,8.83
2023-01-17T00:46:13.740Z,7.93
2023-01-17T00:48:59.702Z,8.33
2023-01-17T00:51:45.895Z,8.60
2023-01-17T00:54:31.485Z,8.20
2023-01-17T00:57:16.888Z,8.67
2023-01-17T01:00:02.616Z,8.60
2023-01-17T01:02:48.790Z,8.97
2023-01-17T01:05:34.891Z,9.27
2023-01-17T01:08:21.065Z,8.30
2023-01-17T01:11:07.504Z,8.13
2023-01-17T01:13:53.112Z,7.97
2023-01-17T01:16:38.908Z,7.10
2023-01-17T01:19:24.588Z,7.77
2023-01-17T01:22:10.130Z,7.10
2023-01-17T01:24:55.427Z,7.43
2023-01-17T01:27:44.103Z,7.63
2023-01-17T01:30:32.515Z,5.83
2023-01-17T01:33:18.363Z,4.60
2023-01-17T01:35:50.536Z,6.40
2023-01-17T01:38:19.107Z,6.60
2023-01-17T01:40:49.002Z,6.43
2023-01-17T01:43:18.382Z,6.73
2023-01-17T01:45:51.095Z,6.00
2023-01-17T01:48:33.701Z,6.37
2023-01-17T01:51:04.080Z,7.30
2023-01-17T01:53:34.771Z,7.20
2023-01-17T01:56:03.465Z,7.40
2023-01-17T01:58:34.188Z,6.53
2023-01-17T02:01:01.025Z,6.50
2023-01-17T02:03:31.900Z,6.90
2023-01-17T02:06:34.520Z,7.23
2023-01-17T02:09:07.642Z,6.97
2023-01-17T02:11:37.404Z,6.90
2023-01-17T02:14:04.331Z,5.33
2023-01-17T02:16:43.878Z,9.17
2023-01-17T02:19:25.641Z,10.03
2023-01-17T02:22:35.222Z,7.37
2023-01-17T02:25:16.720Z,6.53
2023-01-17T02:28:20.509Z,6.03
2023-01-17T02:31:19.622Z,6.63
2023-01-17T02:34:07.445Z,5.93
2023-01-17T02:36:41.923Z,7.07
2023-01-17T02:39:33.769Z,6.43
2023-01-17T02:42:08.139Z,6.30
2023-01-17T02:44:41.686Z,6.40
2023-01-17T02:47:26.501Z,7.03
2023-01-17T02:50:02.118Z,5.50
2023-01-17T02:52:54.553Z,5.57
2023-01-17T02:55:34.497Z,4.83
2023-01-17T02:58:36.388Z,4.30
2023-01-17T03:01:22.181Z,3.90
2023-01-17T03:03:58.708Z,4.23
2023-01-17T03:06:43.480Z,3.20
2023-01-17T03:09:10.732Z,2.90
2023-01-17T03:11:37.718Z,3.20
2023-01-17T03:14:04.470Z,3.33
2023-01-17T03:16:34.332Z,3.13
2023-01-17T03:19:01.648Z,2.63
2023-01-17T03:21:28.466Z,2.60
2023-01-17T03:23:55.867Z,4.63
2023-01-17T03:26:22.641Z,2.80
2023-01-17T03:28:49.376Z,2.90
2023-01-17T03:31:20.433Z,3.17
2023-01-17T03:33:47.450Z,2.90
2023-01-17T03:36:14.645Z,2.90
2023-01-17T03:38:41.643Z,2.83
2023-01-17T03:41:08.759Z,2.23
2023-01-17T03:43:35.481Z,2.30
2023-01-17T03:46:07.713Z,2.00
2023-01-17T03:48:34.723Z,2.00
2023-01-17T03:51:01.738Z,1.40
2023-01-17T03:53:28.499Z,1.60
2023-01-17T03:55:55.465Z,1.87
2023-01-17T03:58:22.358Z,2.20
2023-01-17T04:00:49.269Z,0.90
2023-01-17T04:03:15.996Z,1.07
2023-01-17T04:05:42.745Z,1.03
2023-01-17T04:08:09.563Z,0.50
2023-01-17T04:10:36.487Z,0.40
2023-01-17T04:13:03.300Z,0.60
2023-01-17T04:15:30.672Z,0.40
2023-01-17T04:17:57.903Z,0.40
2023-01-17T04:20:35.145Z,0.57
2023-01-17T04:23:02.038Z,0.50
2023-01-17T04:25:30.794Z,0.83
2023-01-17T04:27:59.241Z,0.70
2023-01-17T04:30:30.156Z,0.40
2023-01-17T04:32:57.379Z,0.40
2023-01-17T04:35:24.692Z,2.03
2023-01-17T04:37:54.412Z,0.43
2023-01-17T04:40:23.353Z,0.60
2023-01-17T04:42:54.502Z,0.20
2023-01-17T04:45:21.375Z,0.30
2023-01-17T04:47:48.178Z,0.57
2023-01-17T04:50:15.412Z,0.20
2023-01-17T04:52:42.304Z,2.10
2023-01-17T04:55:09.404Z,0.23
2023-01-17T04:57:36.303Z,0.73
2023-01-17T05:00:06.731Z,0.30
2023-01-17T05:02:33.954Z,1.13
2023-01-17T05:05:00.869Z,1.17
2023-01-17T05:07:27.897Z,0.40
2023-01-17T05:09:54.669Z,0.50
2023-01-17T05:12:21.478Z,0.50
2023-01-17T05:14:48.819Z,0.90
2023-01-17T05:17:15.587Z,0.47
2023-01-17T05:19:42.318Z,0.80
2023-01-17T05:22:18.069Z,1.27
2023-01-17T05:24:46.484Z,2.20
2023-01-17T05:27:14.543Z,0.50
2023-01-17T05:29:41.675Z,0.30
2023-01-17T05:32:08.700Z,0.70
2023-01-17T05:34:35.581Z,0.57
2023-01-17T05:37:02.483Z,1.03
2023-01-17T05:39:30.917Z,0.70
2023-01-17T05:41:59.499Z,0.43
2023-01-17T05:44:27.985Z,0.40
2023-01-17T05:46:55.205Z,0.40
2023-01-17T05:49:24.039Z,1.67
2023-01-17T05:51:52.408Z,0.30
2023-01-17T05:54:20.994Z,0.70
2023-01-17T05:56:47.821Z,0.90
2023-01-17T05:59:14.814Z,2.50
2023-01-17T06:01:43.509Z,1.17
2023-01-17T06:04:10.330Z,1.27
2023-01-17T06:06:43.634Z,0.83
2023-01-17T06:09:14.252Z,2.30
2023-01-17T06:11:41.068Z,2.20
2023-01-17T06:14:08.810Z,1.37
2023-01-17T06:16:36.275Z,1.40
2023-01-17T06:19:03.181Z,1.60
2023-01-17T06:21:30.793Z,1.97
2023-01-17T06:23:57.568Z,2.83
2023-01-17T06:26:24.402Z,2.93
2023-01-17T06:28:51.164Z,1.70
2023-01-17T06:31:18.503Z,3.37
2023-01-17T06:33:45.550Z,1.93
2023-01-17T06:36:12.346Z,2.07
2023-01-17T06:38:39.042Z,2.53
2023-01-17T06:41:06.350Z,2.33
2023-01-17T06:43:34.977Z,2.30
2023-01-17T06:46:02.235Z,2.60
2023-01-17T06:48:29.052Z,3.50
2023-01-17T06:50:58.273Z,4.03
2023-01-17T06:53:25.274Z,2.60
2023-01-17T06:55:55.095Z,3.53
2023-01-17T06:58:21.864Z,3.73
2023-01-17T07:00:48.653Z,4.23
2023-01-17T07:03:24.422Z,3.60
2023-01-17T07:05:52.162Z,5.63
2023-01-17T07:08:20.533Z,4.73
2023-01-17T07:10:48.231Z,4.43
2023-01-17T07:13:15.168Z,3.67
2023-01-17T07:15:42.249Z,5.13
2023-01-17T07:18:09.210Z,5.17
2023-01-17T07:20:36.079Z,5.77
2023-01-17T07:23:03.180Z,8.50
2023-01-17T07:25:30.055Z,4.97
2023-01-17T07:27:57.769Z,6.87
2023-01-17T07:30:24.988Z,9.13
2023-01-17T07:32:55.461Z,4.87
2023-01-17T07:35:23.585Z,6.77
2023-01-17T07:37:51.689Z,5.40
2023-01-17T07:40:20.134Z,6.73
2023-01-17T07:42:47.477Z,6.03
2023-01-17T07:45:16.207Z,6.23
2023-01-17T07:47:43.087Z,7.80
2023-01-17T07:50:10.542Z,6.03
2023-01-17T07:52:37.335Z,6.13
2023-01-17T07:55:05.126Z,10.10
2023-01-17T07:57:32.730Z,7.97
2023-01-17T07:59:59.592Z,6.57
2023-01-17T08:02:26.610Z,6.37
2023-01-17T08:04:53.619Z,6.47
2023-01-17T08:07:20.603Z,6.13
2023-01-17T08:09:49.794Z,6.20
2023-01-17T08:12:17.537Z,6.93
2023-01-17T08:14:44.963Z,7.50
2023-01-17T08:17:17.093Z,6.77
2023-01-17T08:19:45.020Z,9.33
2023-01-17T08:22:14.594Z,5.90
2023-01-17T08:24:42.163Z,9.93
2023-01-17T08:27:09.217Z,4.07
2023-01-17T08:29:36.590Z,8.23
2023-01-17T08:32:05.543Z,6.33
2023-01-17T08:34:33.789Z,5.10
2023-01-17T08:37:01.180Z,5.67
2023-01-17T08:39:28.858Z,9.33
2023-01-17T08:41:57.493Z,6.90
2023-01-17T08:44:24.753Z,4.70
2023-01-17T08:46:52.025Z,4.73
2023-01-17T08:49:19.206Z,10.57
2023-01-17T08:51:46.300Z,9.33
2023-01-17T08:54:15.307Z,4.27
2023-01-17T08:56:47.013Z,5.60
2023-01-17T08:59:14.025Z,6.07
2023-01-17T09:01:45.978Z,3.13
2023-01-17T09:04:14.478Z,8.17
2023-01-17T09:06:45.649Z,7.90
2023-01-17T09:09:14.050Z,8.20
2023-01-17T09:11:43.775Z,3.63
2023-01-17T09:14:13.158Z,8.57
2023-01-17T09:16:47.299Z,7.87
2023-01-17T09:22:55.326Z,7.57
2023-01-17T09:25:22.704Z,4.53
2023-01-17T09:27:50.535Z,6.37
2023-01-17T09:30:17.747Z,7.87
2023-01-17T09:32:44.740Z,8.93
2023-01-17T09:35:11.880Z,10.60
2023-01-17T09:37:39.166Z,6.60
2023-01-17T09:40:07.200Z,4.67
2023-01-17T09:42:40.441Z,8.30
2023-01-17T09:45:19.411Z,7.17
2023-01-17T09:47:51.399Z,6.37
2023-01-17T09:50:49.603Z,7.87
2023-01-17T09:53:21.157Z,8.67
2023-01-17T09:55:52.482Z,9.57
2023-01-17T09:58:23.969Z,9.07
2023-01-17T10:01:00.272Z,6.70
2023-01-17T10:03:41.183Z,8.73
2023-01-17T10:06:45.401Z,7.47
2023-01-17T10:09:37.660Z,7.37
2023-01-17T10:12:26.144Z,10.03
2023-01-17T10:15:30.743Z,9.17
2023-01-17T10:18:16.606Z,13.60
2023-01-17T10:21:17.032Z,6.27
2023-01-17T10:23:47.020Z,9.43
2023-01-17T10:26:22.308Z,11.23
2023-01-17T10:28:51.776Z,6.90
2023-01-17T10:31:23.274Z,10.37
2023-01-17T10:33:58.306Z,10.40
2023-01-17T10:36:27.773Z,10.23
2023-01-17T10:39:01.557Z,11.97
2023-01-17T10:41:48.083Z,9.20
2023-01-17T10:44:42.751Z,11.17
2023-01-17T10:47:18.425Z,13.70
2023-01-17T10:49:48.885Z,10.27
2023-01-17T10:52:37.847Z,9.27
2023-01-17T10:55:25.083Z,12.50
2023-01-17T10:57:53.837Z,8.73
2023-01-17T11:00:44.230Z,7.83
2023-01-17T11:03:13.547Z,8.63
2023-01-17T11:05:43.059Z,8.97
2023-01-17T11:08:14.880Z,10.13
2023-01-17T11:10:57.453Z,7.60
2023-01-17T11:13:34.299Z,10.30
2023-01-17T11:16:08.830Z,9.17
2023-01-17T11:18:40.840Z,8.07
2023-01-17T11:21:23.347Z,9.00
2023-01-17T11:23:56.783Z,10.60
2023-01-17T11:26:31.116Z,9.77
2023-01-17T11:29:17.248Z,14.40
2023-01-17T11:31:44.424Z,9.97
2023-01-17T11:34:26.323Z,13.27
2023-01-17T11:37:17.456Z,10.87
2023-01-17T11:39:48.046Z,10.80
2023-01-17T11:42:36.900Z,15.00
2023-01-17T11:45:25.252Z,12.00
2023-01-17T11:48:13.520Z,11.73
2023-01-17T11:50:48.006Z,10.87
2023-01-17T11:53:34.329Z,10.90
2023-01-17T11:56:10.407Z,14.87
2023-01-17T11:58:42.564Z,14.27
2023-01-17T12:01:18.048Z,12.10
2023-01-17T12:03:51.159Z,11.67
2023-01-17T12:06:32.770Z,12.33
2023-01-17T12:09:15.711Z,14.90
2023-01-17T12:12:15.882Z,16.00
2023-01-17T12:15:06.678Z,10.63
2023-01-17T12:17:39.483Z,12.10
2023-01-17T12:20:31.600Z,11.67
2023-01-17T12:23:08.344Z,13.83
2023-01-17T12:26:06.481Z,12.97
2023-01-17T12:28:46.241Z,13.47
2023-01-17T12:31:38.844Z,13.87
2023-01-17T12:34:26.205Z,14.70
2023-01-17T12:36:57.053Z,12.93
2023-01-17T12:39:34.313Z,14.40
2023-01-17T12:42:13.458Z,18.27
2023-01-17T12:44:57.932Z,16.83
2023-01-17T12:47:25.485Z,16.87
2023-01-17T12:50:40.511Z,17.43
2023-01-17T12:53:07.228Z,19.37
2023-01-17T12:55:40.548Z,17.77
2023-01-17T12:58:19.532Z,16.30
2023-01-17T13:00:52.409Z,18.53
2023-01-17T13:03:49.335Z,17.50
2023-01-17T13:06:26.904Z,16.40
2023-01-17T13:08:58.179Z,17.63
2023-01-17T13:11:30.923Z,16.20
2023-01-17T13:13:59.895Z,17.33
2023-01-17T13:17:11.592Z,17.23
2023-01-17T13:19:55.962Z,15.77
2023-01-17T13:22:26.991Z,19.40
2023-01-17T13:25:09.326Z,20.07
2023-01-17T13:27:46.781Z,15.83
2023-01-17T13:30:26.524Z,17.47
2023-01-17T13:33:10.551Z,13.27
2023-01-17T13:36:01.807Z,13.50
2023-01-17T13:38:54.987Z,17.00
2023-01-17T13:41:42.860Z,16.57
2023-01-17T13:44:27.458Z,12.93
2023-01-17T13:47:02.580Z,14.27
2023-01-17T13:49:29.658Z,13.43
2023-01-17T13:52:22.649Z,13.33
2023-01-17T13:54:54.883Z,13.63
2023-01-17T13:57:32.865Z,19.77
2023-01-17T14:00:36.642Z,16.33
2023-01-17T14:03:03.502Z,13.30
2023-01-17T14:05:30.629Z,21.80
2023-01-17T14:08:13.135Z,12.37
2023-01-17T14:10:48.291Z,18.37
2023-01-17T14:13:35.651Z,15.93
2023-01-17T14:16:05.862Z,14.97
2023-01-17T14:18:41.853Z,14.93
2023-01-17T14:21:18.975Z,15.77
2023-01-17T14:23:58.469Z,13.03
2023-01-17T14:26:45.742Z,12.97
2023-01-17T14:29:56.866Z,19.73
2023-01-17T14:32:40.587Z,14.37
2023-01-17T14:35:22.217Z,11.07
2023-01-17T14:38:02.977Z,20.47
2023-01-17T14:40:39.549Z,12.70
2023-01-17T14:43:15.758Z,16.53
2023-01-17T14:45:43.631Z,11.40
2023-01-17T14:48:19.890Z,12.03
2023-01-17T14:50:49.328Z,11.90
2023-01-17T14:53:22.312Z,16.63
2023-01-17T14:55:49.064Z,14.37
2023-01-17T14:58:20.362Z,17.73
2023-01-17T15:00:50.186Z,16.30
2023-01-17T15:03:17.465Z,14.37
2023-01-17T15:05:48.645Z,14.20
2023-01-17T15:08:22.293Z,14.53
2023-01-17T15:10:58.879Z,16.77
2023-01-17T15:13:43.842Z,13.23
2023-01-17T15:16:25.004Z,14.20
2023-01-17T15:18:54.014Z,14.83
2023-01-17T15:21:26.946Z,12.93
2023-01-17T15:23:56.481Z,14.20
2023-01-17T15:26:29.895Z,16.07
2023-01-17T15:29:28.318Z,16.77
2023-01-17T15:32:06.481Z,19.30
2023-01-17T15:34:36.723Z,16.73
2023-01-17T15:37:21.608Z,15.63
2023-01-17T15:39:48.659Z,13.97
2023-01-17T15:42:31.438Z,15.50
2023-01-17T15:45:05.807Z,19.40
2023-01-17T15:47:38.655Z,15.13
2023-01-17T15:50:32.553Z,18.93
2023-01-17T15:53:05.534Z,19.73
2023-01-17T15:55:34.406Z,17.13
2023-01-17T15:58:02.339Z,21.53
2023-01-17T16:00:39.713Z,15.60
2023-01-17T16:03:24.835Z,21.30
2023-01-17T16:05:54.906Z,23.80
2023-01-17T16:08:33.916Z,17.77
2023-01-17T16:11:03.061Z,22.23
2023-01-17T16:13:32.161Z,22.73
2023-01-17T16:16:12.111Z,20.13
2023-01-17T16:18:40.375Z,15.07
2023-01-17T16:21:25.472Z,12.27
2023-01-17T16:23:53.054Z,17.17
2023-01-17T16:26:20.154Z,14.80
2023-01-17T16:28:47.879Z,14.77
2023-01-17T16:31:15.324Z,13.40
2023-01-17T16:33:42.534Z,16.10
2023-01-17T16:36:16.568Z,19.53
2023-01-17T16:38:45.227Z,16.27
2023-01-17T16:41:12.393Z,13.33
2023-01-17T16:43:39.832Z,14.33
2023-01-17T16:46:07.089Z,16.50
2023-01-17T16:48:33.996Z,16.97
2023-01-17T16:51:06.113Z,17.67
2023-01-17T16:53:32.966Z,35.07
2023-01-17T16:56:08.416Z,37.00
2023-01-17T16:58:35.527Z,27.73
2023-01-17T17:01:02.432Z,30.83
2023-01-17T17:03:30.018Z,21.87
2023-01-17T17:05:58.766Z,18.63
2023-01-17T17:08:26.239Z,24.83
2023-01-17T17:10:53.662Z,44.37
2023-01-17T17:13:20.696Z,41.37
2023-01-17T17:15:51.095Z,36.87
2023-01-17T17:18:19.340Z,32.40
2023-01-17T17:20:47.094Z,29.57
2023-01-17T17:23:14.253Z,26.03
2023-01-17T17:25:41.077Z,20.13
2023-01-17T17:28:09.526Z,21.23
2023-01-17T17:30:36.639Z,22.87
2023-01-17T17:33:05.014Z,22.37
2023-01-17T17:35:35.356Z,20.10
2023-01-17T17:38:02.736Z,18.67
2023-01-17T17:40:29.764Z,16.00
2023-01-17T17:42:56.818Z,17.53
2023-01-17T17:45:26.745Z,14.60
2023-01-17T17:47:54.378Z,20.40
2023-01-17T17:50:21.359Z,19.73
2023-01-17T17:52:48.791Z,23.47
2023-01-17T17:55:19.060Z,16.30
2023-01-17T17:57:46.463Z,18.53
2023-01-17T18:00:13.747Z,20.90
2023-01-17T18:02:40.812Z,19.17
2023-01-17T18:05:07.879Z,22.30
2023-01-17T18:07:34.760Z,18.30
2023-01-17T18:10:06.733Z,24.07
2023-01-17T18:12:33.879Z,23.97
2023-01-17T18:15:00.878Z,21.43
2023-01-17T18:17:27.900Z,21.20
2023-01-17T18:19:54.760Z,21.77
2023-01-17T18:22:21.751Z,24.03
2023-01-17T18:24:48.834Z,23.10
2023-01-17T18:27:15.803Z,26.20
2023-01-17T18:29:42.564Z,19.73
2023-01-17T18:32:09.360Z,24.60
2023-01-17T18:34:41.402Z,25.10
2023-01-17T18:37:08.592Z,23.70
2023-01-17T18:39:35.509Z,23.03
2023-01-17T18:42:02.484Z,27.17
2023-01-17T18:44:30.155Z,21.27
2023-01-17T18:47:04.460Z,24.70
2023-01-17T18:49:33.895Z,30.87
2023-01-17T18:52:01.398Z,25.37
2023-01-17T18:54:28.320Z,48.80
2023-01-17T18:56:56.459Z,40.23
2023-01-17T18:59:23.588Z,24.70
2023-01-17T19:01:50.679Z,24.97
2023-01-17T19:04:18.308Z,34.67
2023-01-17T19:06:47.351Z,26.77
2023-01-17T19:09:15.721Z,28.97
2023-01-17T19:11:44.855Z,30.63
2023-01-17T19:14:12.805Z,29.50
2023-01-17T19:16:41.092Z,26.83
2023-01-17T19:19:11.109Z,24.67
2023-01-17T19:21:38.632Z,25.23
2023-01-17T19:24:06.746Z,26.37
2023-01-17T19:26:34.309Z,30.10
2023-01-17T19:29:03.914Z,24.37
2023-01-17T19:31:35.923Z,27.33
2023-01-17T19:34:02.795Z,28.07
2023-01-17T19:36:33.867Z,22.90
2023-01-17T19:39:05.889Z,28.63
2023-01-17T19:41:35.784Z,27.23
2023-01-17T19:44:08.216Z,27.10
2023-01-17T19:46:38.574Z,31.83
2023-01-17T19:49:07.753Z,22.13
2023-01-17T19:51:36.020Z,23.27
2023-01-17T19:54:04.226Z,24.30
2023-01-17T19:56:32.011Z,23.33
2023-01-17T19:59:01.689Z,22.80
2023-01-17T20:01:31.787Z,22.83
2023-01-17T20:03:59.785Z,22.17
2023-01-17T20:06:29.207Z,22.37
2023-01-17T20:08:56.514Z,23.03
2023-01-17T20:11:28.293Z,25.47
2023-01-17T20:13:57.786Z,26.47
2023-01-17T20:16:27.042Z,25.40
2023-01-17T20:18:54.127Z,25.23
2023-01-17T20:21:24.378Z,22.00
2023-01-17T20:23:52.610Z,25.37
2023-01-17T20:26:22.368Z,25.17
2023-01-17T20:28:52.129Z,20.67
2023-01-17T20:31:21.866Z,25.17
2023-01-17T20:33:51.020Z,23.40
2023-01-17T20:36:19.873Z,25.90
2023-01-17T20:38:48.766Z,23.03
2023-01-17T20:41:33.347Z,22.47
2023-01-17T20:44:02.415Z,21.13
2023-01-17T20:46:35.401Z,21.23
2023-01-17T20:49:06.152Z,27.23
2023-01-17T20:51:40.795Z,21.37
2023-01-17T20:54:10.987Z,22.83
2023-01-17T20:56:38.565Z,21.97
2023-01-17T20:59:12.298Z,22.97
2023-01-17T21:01:39.719Z,24.60
2023-01-17T21:04:10.614Z,19.87
2023-01-17T21:06:40.089Z,23.93
2023-01-17T21:09:08.987Z,20.27
2023-01-17T21:11:37.033Z,25.10
2023-01-17T21:14:05.988Z,19.83
2023-01-17T21:16:34.254Z,25.07
2023-01-17T21:19:02.107Z,21.83
2023-01-17T21:21:29.567Z,22.70
2023-01-17T21:23:59.059Z,26.30
2023-01-17T21:26:27.835Z,22.77
2023-01-17T21:28:56.332Z,21.00
2023-01-17T21:31:27.762Z,27.80
2023-01-17T21:33:54.801Z,29.67
2023-01-17T21:36:26.146Z,23.17
2023-01-17T21:38:56.978Z,20.73
2023-01-17T21:41:27.640Z,22.20
2023-01-17T21:44:00.210Z,22.53
2023-01-17T21:46:28.679Z,20.37
2023-01-17T21:48:59.340Z,20.30
2023-01-17T21:51:46.644Z,22.93
2023-01-17T21:54:13.942Z,19.10
2023-01-17T21:56:59.295Z,20.53
2023-01-17T21:59:28.113Z,21.47
2023-01-17T22:01:55.100Z,21.20
2023-01-17T22:04:22.354Z,21.47
2023-01-17T22:06:49.692Z,19.47
2023-01-17T22:09:18.968Z,22.47
2023-01-17T22:11:46.300Z,25.17
2023-01-17T22:14:13.693Z,25.20
2023-01-17T22:16:41.497Z,22.37
2023-01-17T22:19:11.918Z,20.63
2023-01-17T22:21:40.459Z,24.63
2023-01-17T22:24:08.062Z,19.70
2023-01-17T22:26:35.254Z,17.50
2023-01-17T22:29:02.666Z,24.33
2023-01-17T22:31:30.193Z,21.83
2023-01-17T22:34:02.685Z,25.77
2023-01-17T22:36:34.293Z,22.53
2023-01-17T22:39:01.522Z,27.97
2023-01-17T22:41:30.310Z,22.53
2023-01-17T22:43:59.988Z,20.97
2023-01-17T22:46:30.540Z,20.77
2023-01-17T22:48:59.537Z,26.10
2023-01-17T22:51:29.289Z,20.10
2023-01-17T22:53:59.127Z,26.67
2023-01-17T22:56:32.475Z,21.67
2023-01-17T22:59:00.846Z,23.13
2023-01-17T23:01:30.708Z,20.63
2023-01-17T23:04:05.537Z,20.83
2023-01-17T23:06:37.749Z,17.93
2023-01-17T23:09:08.511Z,21.13
2023-01-17T23:11:39.893Z,19.97
2023-01-17T23:14:18.021Z,24.73
2023-01-17T23:17:08.052Z,23.27
2023-01-17T23:19:39.162Z,19.20
2023-01-17T23:22:21.907Z,20.30
2023-01-17T23:24:52.892Z,22.13
2023-01-17T23:27:42.052Z,18.00
2023-01-17T23:30:34.853Z,24.70
2023-01-17T23:33:13.300Z,22.93
2023-01-17T23:35:42.731Z,22.40
2023-01-17T23:38:26.642Z,19.80
2023-01-17T23:41:17.945Z,22.37
2023-01-17T23:43:49.495Z,22.60
2023-01-17T23:46:16.994Z,19.93
2023-01-17T23:48:44.024Z,17.70
2023-01-17T23:51:11.384Z,20.63
2023-01-17T23:53:39.129Z,21.03
2023-01-17T23:56:20.946Z,18.23
2023-01-17T23:58:48.027Z,18.77
